Nearby METAR Reports

 

KSJC - San Jose, California, USA
Distance from station: NØ 14km
Oppdatert: 08/12/2019 19:53
Hovedsaklig skyet
Hovedsaklig skyet
 Vind fra calm
Vind: Stille
Temperatur: 15°C
Duggpunkt: 12°C
Fuktighet: 82%
Barometer: 1016.9 hPa
Clouds: Hovedsaklig skyet
Visibility: 16 km
Cloud details: Few Clouds 122 m
Delvis skyet 732 m
Hovedsaklig skyet 914 m
2019/12/08 18:53 KSJC 081853Z 00000KT 10SM FEW004 SCT024 BKN030 15/12 A3003 RMK AO2 SLP167 T01500117 $
KNUQ - Moffett Nas/Mtn, California, USA
Distance from station: N 14km
Oppdatert: 21/11/2019 17:56
NOT Current

 
Barometer: 1011.2 hPa
2019/11/21 16:56 KNUQ 211656Z AUTO A2986 RMK AO2 SLP116 PWINO $
 
KPAO - Palo Alto, California, USA
Distance from station: NNV 23km
Oppdatert: 08/12/2019 19:47
Hovedsaklig skyet
Hovedsaklig skyet
 Vind fra N
Vind: N 9 km/h
Temperatur: 14°C
Duggpunkt: 13°C
Fuktighet: 94%
Barometer: 1017.3 hPa
Clouds: Hovedsaklig skyet
Visibility: 16 km
Cloud details: Delvis skyet 213 m
Hovedsaklig skyet 914 m
2019/12/08 18:47 KPAO 081847Z 01005KT 10SM SCT007 BKN030 14/13 A3004
KRHV - San Jose/Reid, California, USA
Distance from station: ØNØ 19km
Oppdatert: 08/12/2019 19:47
Hovedsaklig skyet
Hovedsaklig skyet
 Vind fra calm
Vind: Stille
Temperatur: 16°C
Duggpunkt: 12°C
Fuktighet: 77%
Barometer: 1016.9 hPa
Clouds: Hovedsaklig skyet
Visibility: 14 km
Cloud details: Delvis skyet 610 m
Hovedsaklig skyet 853 m
Hovedsaklig skyet 2438 m
2019/12/08 18:47 KRHV 081847Z 00000KT 9SM SCT020 BKN028 BKN080 16/12 A3003
 
KOAK - Oakland, California, USA
Distance from station: NNV 50km
Oppdatert: 08/12/2019 19:53
Hovedsaklig skyet
Hovedsaklig skyet
 Vind fra varies
Vind: varies 6 km/h
Temperatur: 14°C
Duggpunkt: 12°C
Fuktighet: 88%
Barometer: 1017.3 hPa
Clouds: Hovedsaklig skyet
Visibility: 16 km
Cloud details: Delvis skyet 244 m
Hovedsaklig skyet 549 m
Hovedsaklig skyet 1036 m
Hovedsaklig skyet 4572 m
2019/12/08 18:53 KOAK 081853Z VRB03KT 10SM SCT008 BKN018 BKN034 BKN150 14/12 A3004 RMK AO2 SLP173 T01440122
KSQL - San Carlos Airpo, California, USA
Distance from station: NV 34km
Oppdatert: 08/12/2019 19:47
Hovedsaklig skyet
Hovedsaklig skyet
 Vind fra N
Vind: N 11 km/h
Temperatur: 13°C
Duggpunkt: 13°C
Fuktighet: 100%
Barometer: 1017.6 hPa
Clouds: Hovedsaklig skyet
Visibility: 16 km
Cloud details: Few Clouds 366 m
Hovedsaklig skyet 914 m
2019/12/08 18:47 KSQL 081847Z 36006KT 10SM FEW012 BKN030 13/13 A3005
 
KSFO - San Francisco, California, USA
Distance from station: NV 49km
Oppdatert: 08/12/2019 19:56
Hovedsaklig skyet
Hovedsaklig skyet
 Vind fra SV
Vind: SV 9 km/h
Temperatur: 15°C
Duggpunkt: 11°C
Fuktighet: 77%
Barometer: 1016.9 hPa
Clouds: Hovedsaklig skyet
Visibility: 14 km
Cloud details: Few Clouds 244 m
Delvis skyet 488 m
Hovedsaklig skyet 884 m
2019/12/08 18:56 KSFO 081856Z 22005KT 9SM FEW008 SCT016 BKN029 15/11 A3003 RMK AO2 SLP168 T01500111
KE16 - San Martin, California, USA
Distance from station: ØSØ 43km
Oppdatert: 14/11/2019 10:35
NOT Current
Overskyet
Overskyet
 Vind fra SØ
Vind: SØ 11 km/h
Temperatur: 12°C
Duggpunkt: 10°C
Fuktighet: 88%
Barometer: 1017.6 hPa
Clouds: Overskyet
Visibility: 16 km
Cloud details: Overskyet 427 m
2019/11/14 09:35 KE16 140935Z AUTO 13006KT 10SM OVC014 12/10 A3005 RMK AO2
 
KWVI - Watsonville, California, USA
Distance from station: SSØ 44km
Oppdatert: 08/12/2019 20:14
Lett regn, Overskyet
Lett regn, Overskyet
 Vind fra SSV
Vind: SSV 9 km/h
Temperatur: 16°C
Duggpunkt: 13°C
Fuktighet: 83%
Barometer: 1017.3 hPa
Oversikt: Lett regn
Clouds: Overskyet
Visibility: 16 km
Cloud details: Hovedsaklig skyet 396 m
Overskyet 549 m
2019/12/08 19:14 KWVI 081914Z AUTO 21005KT 10SM -RA BKN013 OVC018 16/13 A3004 RMK AO2 P0000 T01560128
KHAF - Half Moon Bay, California, USA
Distance from station: VNV 50km
Oppdatert: 08/12/2019 20:15
Few Clouds
Few Clouds
 Vind fra NNV
Vind: NNV 7 km/h
Temperatur: 14°C
Duggpunkt: 11°C
Fuktighet: 82%
Barometer: 1017.3 hPa
Clouds: Few Clouds
Visibility: 14 km
Cloud details: Few Clouds 427 m
2019/12/08 19:15 KHAF 081915Z AUTO 33004KT 9SM FEW014 14/11 A3004 RMK AO2
 
KHWD - Hayward, California, USA
Distance from station: N 44km
Oppdatert: 08/12/2019 19:54
Overskyet
Overskyet
 Vind fra V
Vind: V 9 km/h
Temperatur: 13°C
Duggpunkt: 12°C
Fuktighet: 94%
Barometer: 1017.3 hPa
Clouds: Overskyet
Visibility: 16 km
Cloud details: Delvis skyet 122 m
Overskyet 610 m
2019/12/08 18:54 KHWD 081854Z 28005KT 10SM SCT004 OVC020 13/12 A3004 RMK AO2 RAE18 SLP181 P0000 T01330122
KLVK - Livermore, California, USA
Distance from station: NNØ 51km
Oppdatert: 08/12/2019 19:53
Hovedsaklig skyet
Hovedsaklig skyet
 Vind fra calm
Vind: Stille
Temperatur: 14°C
Duggpunkt: 11°C
Fuktighet: 82%
Barometer: 1016.6 hPa
Clouds: Hovedsaklig skyet
Visibility: 16 km
Cloud details: Hovedsaklig skyet 884 m
2019/12/08 18:53 KLVK 081853Z 00000KT 10SM BKN029 14/11 A3002 RMK AO2 SLP164 T01440106